sensor_id;sensor_type;location;lat;lon;timestamp;pressure;altitude;pressure_sealevel;temperature
25985;BMP280;66753;53.848;10.658;2023-03-20T00:00:51;101667.91;;;10.51
25985;BMP280;66753;53.848;10.658;2023-03-20T00:05:52;101666.94;;;10.56
25985;BMP280;66753;53.848;10.658;2023-03-20T00:10:54;101665.25;;;10.51
25985;BMP280;66753;53.848;10.658;2023-03-20T00:15:54;101660.25;;;10.50
25985;BMP280;66753;53.848;10.658;2023-03-20T00:20:55;101662.59;;;10.51
25985;BMP280;66753;53.848;10.658;2023-03-20T00:25:55;101664.94;;;10.53
25985;BMP280;66753;53.848;10.658;2023-03-20T00:30:55;101658.06;;;10.52
25985;BMP280;66753;53.848;10.658;2023-03-20T00:35:56;101658.06;;;10.52
25985;BMP280;66753;53.848;10.658;2023-03-20T00:40:58;101656.69;;;10.54
25985;BMP280;66753;53.848;10.658;2023-03-20T00:45:59;101661.00;;;10.50
25985;BMP280;66753;53.848;10.658;2023-03-20T00:50:59;101643.88;;;10.56
25985;BMP280;66753;53.848;10.658;2023-03-20T00:56:00;101643.09;;;10.56
25985;BMP280;66753;53.848;10.658;2023-03-20T01:01:01;101651.53;;;10.58
25985;BMP280;66753;53.848;10.658;2023-03-20T01:06:02;101648.25;;;10.52
25985;BMP280;66753;53.848;10.658;2023-03-20T01:11:03;101645.56;;;10.44
25985;BMP280;66753;53.848;10.658;2023-03-20T01:16:04;101644.94;;;10.47
25985;BMP280;66753;53.848;10.658;2023-03-20T01:21:07;101644.50;;;10.45
25985;BMP280;66753;53.848;10.658;2023-03-20T01:26:38;101640.09;;;10.40
25985;BMP280;66753;53.848;10.658;2023-03-20T01:31:38;101646.97;;;10.41
25985;BMP280;66753;53.848;10.658;2023-03-20T01:36:47;101643.81;;;10.39
25985;BMP280;66753;53.848;10.658;2023-03-20T01:41:48;101637.75;;;10.39
25985;BMP280;66753;53.848;10.658;2023-03-20T01:46:52;101651.16;;;10.42
25985;BMP280;66753;53.848;10.658;2023-03-20T01:51:54;101639.50;;;10.43
25985;BMP280;66753;53.848;10.658;2023-03-20T01:57:02;101650.09;;;10.43
25985;BMP280;66753;53.848;10.658;2023-03-20T02:02:04;101641.84;;;10.45
25985;BMP280;66753;53.848;10.658;2023-03-20T02:07:07;101649.78;;;10.45
25985;BMP280;66753;53.848;10.658;2023-03-20T02:12:09;101644.78;;;10.43
25985;BMP280;66753;53.848;10.658;2023-03-20T02:17:10;101639.50;;;10.43
25985;BMP280;66753;53.848;10.658;2023-03-20T02:44:17;101621.38;;;10.28
25985;BMP280;66753;53.848;10.658;2023-03-20T02:54:34;101622.16;;;10.29
25985;BMP280;66753;53.848;10.658;2023-03-20T02:59:53;101616.84;;;10.29
25985;BMP280;66753;53.848;10.658;2023-03-20T03:05:02;101616.50;;;10.22
25985;BMP280;66753;53.848;10.658;2023-03-20T03:10:11;101621.66;;;10.18
25985;BMP280;66753;53.848;10.658;2023-03-20T03:15:16;101617.56;;;10.12
25985;BMP280;66753;53.848;10.658;2023-03-20T03:20:21;101605.25;;;10.08
25985;BMP280;66753;53.848;10.658;2023-03-20T03:25:25;101607.44;;;10.06
25985;BMP280;66753;53.848;10.658;2023-03-20T03:30:28;101608.19;;;10.06
25985;BMP280;66753;53.848;10.658;2023-03-20T03:35:31;101609.88;;;9.94
25985;BMP280;66753;53.848;10.658;2023-03-20T03:40:33;101603.13;;;9.79
25985;BMP280;66753;53.848;10.658;2023-03-20T03:45:45;101606.91;;;9.65
25985;BMP280;66753;53.848;10.658;2023-03-20T03:51:02;101604.41;;;9.60
25985;BMP280;66753;53.848;10.658;2023-03-20T03:56:08;101600.50;;;9.57
25985;BMP280;66753;53.848;10.658;2023-03-20T04:01:11;101597.19;;;9.52
25985;BMP280;66753;53.848;10.658;2023-03-20T04:06:13;101604.81;;;9.45
25985;BMP280;66753;53.848;10.658;2023-03-20T04:11:16;101604.41;;;9.38
25985;BMP280;66753;53.848;10.658;2023-03-20T04:16:19;101599.84;;;9.30
25985;BMP280;66753;53.848;10.658;2023-03-20T04:21:19;101594.44;;;9.26
25985;BMP280;66753;53.848;10.658;2023-03-20T04:26:20;101601.88;;;9.24
25985;BMP280;66753;53.848;10.658;2023-03-20T04:31:21;101599.53;;;9.23
25985;BMP280;66753;53.848;10.658;2023-03-20T04:36:22;101593.44;;;9.22
25985;BMP280;66753;53.848;10.658;2023-03-20T04:41:22;101591.59;;;9.23
25985;BMP280;66753;53.848;10.658;2023-03-20T04:46:22;101586.03;;;9.11
25985;BMP280;66753;53.848;10.658;2023-03-20T04:51:23;101591.56;;;9.01
25985;BMP280;66753;53.848;10.658;2023-03-20T04:56:23;101583.53;;;9.06
25985;BMP280;66753;53.848;10.658;2023-03-20T05:01:24;101591.56;;;9.01
25985;BMP280;66753;53.848;10.658;2023-03-20T05:06:25;101591.91;;;8.99
25985;BMP280;66753;53.848;10.658;2023-03-20T05:11:27;101591.56;;;9.01
25985;BMP280;66753;53.848;10.658;2023-03-20T05:16:27;101585.91;;;8.93
25985;BMP280;66753;53.848;10.658;2023-03-20T05:21:28;101579.78;;;8.84
25985;BMP280;66753;53.848;10.658;2023-03-20T05:26:28;101587.72;;;8.84
25985;BMP280;66753;53.848;10.658;2023-03-20T05:31:28;101589.84;;;8.82
25985;BMP280;66753;53.848;10.658;2023-03-20T05:36:29;101590.56;;;8.88
25985;BMP280;66753;53.848;10.658;2023-03-20T05:41:30;101594.47;;;8.91
25985;BMP280;66753;53.848;10.658;2023-03-20T05:46:30;101590.41;;;8.93
25985;BMP280;66753;53.848;10.658;2023-03-20T05:51:30;101600.41;;;8.96
25985;BMP280;66753;53.848;10.658;2023-03-20T05:56:31;101604.91;;;8.96
25985;BMP280;66753;53.848;10.658;2023-03-20T06:01:31;101617.53;;;8.99
25985;BMP280;66753;53.848;10.658;2023-03-20T06:06:32;101624.84;;;9.02
25985;BMP280;66753;53.848;10.658;2023-03-20T06:11:34;101626.72;;;9.01
25985;BMP280;66753;53.848;10.658;2023-03-20T06:16:35;101629.22;;;8.98
25985;BMP280;66753;53.848;10.658;2023-03-20T06:21:35;101626.28;;;8.99
25985;BMP280;66753;53.848;10.658;2023-03-20T06:26:36;101631.34;;;8.96
25985;BMP280;66753;53.848;10.658;2023-03-20T06:31:36;101633.78;;;8.92
25985;BMP280;66753;53.848;10.658;2023-03-20T06:36:36;101632.63;;;8.98
25985;BMP280;66753;53.848;10.658;2023-03-20T06:41:37;101642.19;;;9.08
25985;BMP280;66753;53.848;10.658;2023-03-20T06:46:38;101642.56;;;9.15
25985;BMP280;66753;53.848;10.658;2023-03-20T06:51:38;101639.91;;;9.15
25985;BMP280;66753;53.848;10.658;2023-03-20T06:56:39;101638.22;;;9.19
25985;BMP280;66753;53.848;10.658;2023-03-20T07:01:40;101645.63;;;9.30
25985;BMP280;66753;53.848;10.658;2023-03-20T07:06:40;101654.56;;;9.34
25985;BMP280;66753;53.848;10.658;2023-03-20T07:11:40;101648.63;;;9.37
25985;BMP280;66753;53.848;10.658;2023-03-20T07:16:41;101659.97;;;9.38
25985;BMP280;66753;53.848;10.658;2023-03-20T07:21:42;101659.88;;;9.43
25985;BMP280;66753;53.848;10.658;2023-03-20T07:26:43;101647.31;;;9.48
25985;BMP280;66753;53.848;10.658;2023-03-20T07:31:43;101659.16;;;9.51
25985;BMP280;66753;53.848;10.658;2023-03-20T07:36:44;101663.81;;;9.45
25985;BMP280;66753;53.848;10.658;2023-03-20T07:49:01;101659.16;;;9.51
25985;BMP280;66753;53.848;10.658;2023-03-20T07:59:03;101670.44;;;9.65
25985;BMP280;66753;53.848;10.658;2023-03-20T08:09:05;101662.16;;;9.80
25985;BMP280;66753;53.848;10.658;2023-03-20T08:19:05;101680.03;;;10.05
25985;BMP280;66753;53.848;10.658;2023-03-20T08:29:06;101679.75;;;10.15
25985;BMP280;66753;53.848;10.658;2023-03-20T08:39:07;101688.53;;;10.24
25985;BMP280;66753;53.848;10.658;2023-03-20T08:49:08;101678.81;;;10.11
25985;BMP280;66753;53.848;10.658;2023-03-20T09:09:11;101666.84;;;10.22
25985;BMP280;66753;53.848;10.658;2023-03-20T09:19:16;101679.97;;;10.27
25985;BMP280;66753;53.848;10.658;2023-03-20T09:29:16;101699.59;;;10.26
25985;BMP280;66753;53.848;10.658;2023-03-20T09:39:17;101717.72;;;10.41
25985;BMP280;66753;53.848;10.658;2023-03-20T09:59:39;101722.63;;;10.56
25985;BMP280;66753;53.848;10.658;2023-03-20T10:09:41;101725.91;;;10.53
25985;BMP280;66753;53.848;10.658;2023-03-20T10:29:56;101707.72;;;10.77
25985;BMP280;66753;53.848;10.658;2023-03-20T10:50:10;101698.88;;;11.24
25985;BMP280;66753;53.848;10.658;2023-03-20T11:00:24;101691.94;;;11.57
25985;BMP280;66753;53.848;10.658;2023-03-20T11:10:26;101681.94;;;11.62
25985;BMP280;66753;53.848;10.658;2023-03-20T11:20:32;101656.19;;;11.46
25985;BMP280;66753;53.848;10.658;2023-03-20T11:30:39;101636.16;;;11.57
25985;BMP280;66753;53.848;10.658;2023-03-20T11:40:39;101633.44;;;11.82
25985;BMP280;66753;53.848;10.658;2023-03-20T11:50:46;101616.72;;;11.82
25985;BMP280;66753;53.848;10.658;2023-03-20T12:00:49;101601.94;;;11.64
25985;BMP280;66753;53.848;10.658;2023-03-20T12:10:56;101598.09;;;11.53
25985;BMP280;66753;53.848;10.658;2023-03-20T12:31:25;101598.41;;;11.43
25985;BMP280;66753;53.848;10.658;2023-03-20T12:41:33;101604.97;;;11.54
25985;BMP280;66753;53.848;10.658;2023-03-20T14:03:37;101510.91;;;12.25
25985;BMP280;66753;53.848;10.658;2023-03-20T14:13:45;101524.63;;;12.15
25985;BMP280;66753;53.848;10.658;2023-03-20T14:23:56;101520.59;;;12.09
25985;BMP280;66753;53.848;10.658;2023-03-20T14:44:29;101491.94;;;12.35
25985;BMP280;66753;53.848;10.658;2023-03-20T14:54:33;101494.63;;;12.26
25985;BMP280;66753;53.848;10.658;2023-03-20T15:04:38;101505.69;;;11.96
25985;BMP280;66753;53.848;10.658;2023-03-20T15:14:43;101509.00;;;11.64
25985;BMP280;66753;53.848;10.658;2023-03-20T15:24:54;101511.97;;;11.62
25985;BMP280;66753;53.848;10.658;2023-03-20T15:34:55;101522.94;;;11.61
25985;BMP280;66753;53.848;10.658;2023-03-20T15:44:56;101520.00;;;11.54
25985;BMP280;66753;53.848;10.658;2023-03-20T15:54:58;101515.84;;;11.65
25985;BMP280;66753;53.848;10.658;2023-03-20T16:04:59;101501.09;;;11.76
25985;BMP280;66753;53.848;10.658;2023-03-20T16:14:59;101525.34;;;11.74
25985;BMP280;66753;53.848;10.658;2023-03-20T16:25:01;101516.41;;;11.50
25985;BMP280;66753;53.848;10.658;2023-03-20T16:35:05;101522.41;;;11.30
25985;BMP280;66753;53.848;10.658;2023-03-20T16:45:19;101542.41;;;11.19
25985;BMP280;66753;53.848;10.658;2023-03-20T16:55:26;101540.72;;;11.06
25985;BMP280;66753;53.848;10.658;2023-03-20T17:05:43;101539.03;;;11.01
25985;BMP280;66753;53.848;10.658;2023-03-20T17:15:44;101546.84;;;10.98
25985;BMP280;66753;53.848;10.658;2023-03-20T17:25:44;101554.19;;;10.84
25985;BMP280;66753;53.848;10.658;2023-03-20T17:35:45;101565.41;;;10.81
25985;BMP280;66753;53.848;10.658;2023-03-20T17:45:46;101586.97;;;10.71
25985;BMP280;66753;53.848;10.658;2023-03-20T17:55:47;101583.25;;;10.55
25985;BMP280;66753;53.848;10.658;2023-03-20T18:05:49;101603.16;;;10.35
25985;BMP280;66753;53.848;10.658;2023-03-20T18:15:51;101608.09;;;10.20
25985;BMP280;66753;53.848;10.658;2023-03-20T18:25:52;101597.78;;;10.10
25985;BMP280;66753;53.848;10.658;2023-03-20T18:35:53;101599.66;;;10.18
25985;BMP280;66753;53.848;10.658;2023-03-20T18:45:53;101603.38;;;10.17
25985;BMP280;66753;53.848;10.658;2023-03-20T18:55:54;101606.34;;;10.15
25985;BMP280;66753;53.848;10.658;2023-03-20T19:05:56;101591.22;;;10.16
25985;BMP280;66753;53.848;10.658;2023-03-20T19:15:57;101591.22;;;10.16
25985;BMP280;66753;53.848;10.658;2023-03-20T19:25:57;101587.78;;;10.15
25985;BMP280;66753;53.848;10.658;2023-03-20T19:35:57;101592.34;;;10.23
25985;BMP280;66753;53.848;10.658;2023-03-20T19:45:58;101603.41;;;10.25
25985;BMP280;66753;53.848;10.658;2023-03-20T19:55:59;101606.38;;;10.24
25985;BMP280;66753;53.848;10.658;2023-03-20T20:05:59;101606.53;;;10.19
25985;BMP280;66753;53.848;10.658;2023-03-20T20:16:01;101600.69;;;10.00
25985;BMP280;66753;53.848;10.658;2023-03-20T20:26:02;101606.13;;;9.95
25985;BMP280;66753;53.848;10.658;2023-03-20T20:36:11;101612.72;;;9.97
25985;BMP280;66753;53.848;10.658;2023-03-20T20:46:11;101609.28;;;9.97
25985;BMP280;66753;53.848;10.658;2023-03-20T20:56:12;101621.38;;;9.98
25985;BMP280;66753;53.848;10.658;2023-03-20T21:06:12;101623.91;;;9.94
25985;BMP280;66753;53.848;10.658;2023-03-20T21:16:13;101627.81;;;9.97
25985;BMP280;66753;53.848;10.658;2023-03-20T21:26:16;101633.25;;;10.00
25985;BMP280;66753;53.848;10.658;2023-03-20T21:36:17;101628.75;;;10.01
25985;BMP280;66753;53.848;10.658;2023-03-20T21:46:18;101618.47;;;9.99
25985;BMP280;66753;53.848;10.658;2023-03-20T21:56:18;101619.97;;;9.92
25985;BMP280;66753;53.848;10.658;2023-03-20T22:06:19;101622.16;;;9.90
25985;BMP280;66753;53.848;10.658;2023-03-20T22:16:20;101615.78;;;9.91
25985;BMP280;66753;53.848;10.658;2023-03-20T22:26:20;101610.63;;;9.86
25985;BMP280;66753;53.848;10.658;2023-03-20T22:36:21;101610.97;;;9.93
25985;BMP280;66753;53.848;10.658;2023-03-20T22:46:21;101610.78;;;9.98
25985;BMP280;66753;53.848;10.658;2023-03-20T22:56:22;101605.50;;;9.98
25985;BMP280;66753;53.848;10.658;2023-03-20T23:06:25;101606.13;;;9.95
25985;BMP280;66753;53.848;10.658;2023-03-20T23:16:26;101603.19;;;9.96
25985;BMP280;66753;53.848;10.658;2023-03-20T23:26:26;101596.63;;;9.94
25985;BMP280;66753;53.848;10.658;2023-03-20T23:36:27;101584.78;;;9.91
25985;BMP280;66753;53.848;10.658;2023-03-20T23:46:28;101589.78;;;9.93
25985;BMP280;66753;53.848;10.658;2023-03-20T23:56:28;101582.91;;;9.92
